sensor_id;sensor_type;location;lat;lon;timestamp;P1;durP1;ratioP1;P2;durP2;ratioP2
73550;SDS011;61816;53.582;10.096;2023-02-01T00:01:55;51.78;;;8.43;;
73550;SDS011;61816;53.582;10.096;2023-02-01T00:04:21;45.90;;;8.02;;
73550;SDS011;61816;53.582;10.096;2023-02-01T00:06:47;61.28;;;10.25;;
73550;SDS011;61816;53.582;10.096;2023-02-01T00:09:12;58.28;;;11.30;;
73550;SDS011;61816;53.582;10.096;2023-02-01T00:11:38;55.80;;;7.95;;
73550;SDS011;61816;53.582;10.096;2023-02-01T00:14:04;76.25;;;12.73;;
73550;SDS011;61816;53.582;10.096;2023-02-01T00:16:30;61.92;;;9.57;;
73550;SDS011;61816;53.582;10.096;2023-02-01T00:18:57;56.67;;;8.80;;
73550;SDS011;61816;53.582;10.096;2023-02-01T00:21:25;75.05;;;9.70;;
73550;SDS011;61816;53.582;10.096;2023-02-01T00:23:50;57.42;;;9.07;;
73550;SDS011;61816;53.582;10.096;2023-02-01T00:26:16;68.55;;;8.93;;
73550;SDS011;61816;53.582;10.096;2023-02-01T00:28:44;45.95;;;8.02;;
73550;SDS011;61816;53.582;10.096;2023-02-01T00:31:10;64.55;;;8.55;;
73550;SDS011;61816;53.582;10.096;2023-02-01T00:33:35;62.72;;;7.47;;
73550;SDS011;61816;53.582;10.096;2023-02-01T00:36:02;70.28;;;11.60;;
73550;SDS011;61816;53.582;10.096;2023-02-01T00:38:30;64.93;;;9.38;;
73550;SDS011;61816;53.582;10.096;2023-02-01T00:41:06;68.05;;;9.75;;
73550;SDS011;61816;53.582;10.096;2023-02-01T00:43:35;70.63;;;10.55;;
73550;SDS011;61816;53.582;10.096;2023-02-01T00:46:01;59.33;;;9.82;;
73550;SDS011;61816;53.582;10.096;2023-02-01T00:48:27;58.70;;;7.93;;
73550;SDS011;61816;53.582;10.096;2023-02-01T00:50:53;61.03;;;8.70;;
73550;SDS011;61816;53.582;10.096;2023-02-01T00:53:18;81.72;;;10.10;;
73550;SDS011;61816;53.582;10.096;2023-02-01T00:55:44;59.45;;;10.60;;
73550;SDS011;61816;53.582;10.096;2023-02-01T00:58:13;66.03;;;9.80;;
73550;SDS011;61816;53.582;10.096;2023-02-01T01:00:39;64.43;;;10.15;;
73550;SDS011;61816;53.582;10.096;2023-02-01T01:03:04;82.57;;;11.07;;
73550;SDS011;61816;53.582;10.096;2023-02-01T01:05:46;71.38;;;9.20;;
73550;SDS011;61816;53.582;10.096;2023-02-01T01:08:13;72.35;;;9.90;;
73550;SDS011;61816;53.582;10.096;2023-02-01T01:10:39;83.45;;;13.43;;
73550;SDS011;61816;53.582;10.096;2023-02-01T01:13:05;83.20;;;10.13;;
73550;SDS011;61816;53.582;10.096;2023-02-01T01:15:35;73.72;;;10.07;;
73550;SDS011;61816;53.582;10.096;2023-02-01T01:18:01;76.93;;;10.27;;
73550;SDS011;61816;53.582;10.096;2023-02-01T01:20:26;75.47;;;9.93;;
73550;SDS011;61816;53.582;10.096;2023-02-01T01:22:52;72.88;;;9.32;;
73550;SDS011;61816;53.582;10.096;2023-02-01T01:25:17;88.53;;;10.52;;
73550;SDS011;61816;53.582;10.096;2023-02-01T01:27:43;82.88;;;11.73;;
73550;SDS011;61816;53.582;10.096;2023-02-01T01:30:08;63.40;;;10.05;;
73550;SDS011;61816;53.582;10.096;2023-02-01T01:32:34;86.43;;;13.55;;
73550;SDS011;61816;53.582;10.096;2023-02-01T01:34:59;69.75;;;11.13;;
73550;SDS011;61816;53.582;10.096;2023-02-01T01:37:25;74.28;;;10.20;;
73550;SDS011;61816;53.582;10.096;2023-02-01T01:39:50;74.95;;;11.23;;
73550;SDS011;61816;53.582;10.096;2023-02-01T01:42:15;85.20;;;12.70;;
73550;SDS011;61816;53.582;10.096;2023-02-01T01:44:57;64.60;;;10.15;;
73550;SDS011;61816;53.582;10.096;2023-02-01T01:47:37;85.82;;;10.80;;
73550;SDS011;61816;53.582;10.096;2023-02-01T01:50:08;67.70;;;11.15;;
73550;SDS011;61816;53.582;10.096;2023-02-01T01:52:36;81.38;;;10.82;;
73550;SDS011;61816;53.582;10.096;2023-02-01T01:55:02;77.25;;;10.43;;
73550;SDS011;61816;53.582;10.096;2023-02-01T01:57:33;75.60;;;12.93;;
73550;SDS011;61816;53.582;10.096;2023-02-01T02:00:04;67.65;;;11.00;;
73550;SDS011;61816;53.582;10.096;2023-02-01T02:02:33;89.82;;;10.23;;
73550;SDS011;61816;53.582;10.096;2023-02-01T02:04:59;70.07;;;8.73;;
73550;SDS011;61816;53.582;10.096;2023-02-01T02:07:30;64.72;;;9.52;;
73550;SDS011;61816;53.582;10.096;2023-02-01T02:10:03;67.25;;;10.57;;
73550;SDS011;61816;53.582;10.096;2023-02-01T02:12:31;88.22;;;13.68;;
73550;SDS011;61816;53.582;10.096;2023-02-01T02:14:56;74.53;;;10.40;;
73550;SDS011;61816;53.582;10.096;2023-02-01T02:17:30;95.22;;;13.20;;
73550;SDS011;61816;53.582;10.096;2023-02-01T02:23:24;67.03;;;10.93;;
73550;SDS011;61816;53.582;10.096;2023-02-01T02:28:48;87.00;;;12.02;;
73550;SDS011;61816;53.582;10.096;2023-02-01T02:34:32;87.70;;;11.50;;
73550;SDS011;61816;53.582;10.096;2023-02-01T02:39:54;58.97;;;9.10;;
73550;SDS011;61816;53.582;10.096;2023-02-01T02:42:29;77.32;;;10.90;;
73550;SDS011;61816;53.582;10.096;2023-02-01T02:45:38;85.10;;;9.63;;
73550;SDS011;61816;53.582;10.096;2023-02-01T02:51:00;69.85;;;10.70;;
73550;SDS011;61816;53.582;10.096;2023-02-01T02:56:42;89.25;;;10.90;;
73550;SDS011;61816;53.582;10.096;2023-02-01T02:59:26;87.60;;;10.48;;
73550;SDS011;61816;53.582;10.096;2023-02-01T03:02:13;84.32;;;10.63;;
73550;SDS011;61816;53.582;10.096;2023-02-01T03:04:59;60.42;;;8.55;;
73550;SDS011;61816;53.582;10.096;2023-02-01T03:10:26;60.55;;;10.25;;
73550;SDS011;61816;53.582;10.096;2023-02-01T03:13:05;89.78;;;10.75;;
73550;SDS011;61816;53.582;10.096;2023-02-01T03:18:52;98.35;;;12.10;;
73550;SDS011;61816;53.582;10.096;2023-02-01T03:21:22;77.03;;;9.97;;
73550;SDS011;61816;53.582;10.096;2023-02-01T03:23:51;88.95;;;9.73;;
73550;SDS011;61816;53.582;10.096;2023-02-01T03:26:20;81.25;;;10.18;;
73550;SDS011;61816;53.582;10.096;2023-02-01T03:28:57;83.90;;;11.23;;
73550;SDS011;61816;53.582;10.096;2023-02-01T03:31:30;98.15;;;12.63;;
73550;SDS011;61816;53.582;10.096;2023-02-01T03:33:57;74.05;;;9.63;;
73550;SDS011;61816;53.582;10.096;2023-02-01T03:39:41;47.55;;;6.82;;
73550;SDS011;61816;53.582;10.096;2023-02-01T03:42:18;50.85;;;7.82;;
73550;SDS011;61816;53.582;10.096;2023-02-01T03:44:51;42.63;;;7.15;;
73550;SDS011;61816;53.582;10.096;2023-02-01T03:47:27;38.13;;;5.85;;
73550;SDS011;61816;53.582;10.096;2023-02-01T03:49:57;37.67;;;6.68;;
73550;SDS011;61816;53.582;10.096;2023-02-01T03:52:30;30.17;;;5.22;;
73550;SDS011;61816;53.582;10.096;2023-02-01T03:55:03;45.17;;;6.65;;
73550;SDS011;61816;53.582;10.096;2023-02-01T03:57:31;47.03;;;7.50;;
73550;SDS011;61816;53.582;10.096;2023-02-01T04:00:07;56.53;;;8.27;;
73550;SDS011;61816;53.582;10.096;2023-02-01T04:02:44;38.83;;;6.78;;
73550;SDS011;61816;53.582;10.096;2023-02-01T04:05:10;48.05;;;6.13;;
73550;SDS011;61816;53.582;10.096;2023-02-01T04:07:35;47.97;;;7.57;;
73550;SDS011;61816;53.582;10.096;2023-02-01T04:10:01;51.58;;;7.22;;
73550;SDS011;61816;53.582;10.096;2023-02-01T04:12:28;49.45;;;6.82;;
73550;SDS011;61816;53.582;10.096;2023-02-01T04:14:54;63.63;;;10.07;;
73550;SDS011;61816;53.582;10.096;2023-02-01T04:17:19;47.80;;;7.18;;
73550;SDS011;61816;53.582;10.096;2023-02-01T04:19:45;48.00;;;7.78;;
73550;SDS011;61816;53.582;10.096;2023-02-01T04:22:11;57.22;;;7.35;;
73550;SDS011;61816;53.582;10.096;2023-02-01T04:24:37;54.65;;;7.47;;
73550;SDS011;61816;53.582;10.096;2023-02-01T04:27:03;47.78;;;6.28;;
73550;SDS011;61816;53.582;10.096;2023-02-01T04:29:29;60.42;;;9.45;;
73550;SDS011;61816;53.582;10.096;2023-02-01T04:31:54;49.45;;;6.15;;
73550;SDS011;61816;53.582;10.096;2023-02-01T04:34:20;51.90;;;7.53;;
73550;SDS011;61816;53.582;10.096;2023-02-01T04:36:47;45.58;;;5.53;;
73550;SDS011;61816;53.582;10.096;2023-02-01T04:39:13;47.17;;;6.47;;
73550;SDS011;61816;53.582;10.096;2023-02-01T04:41:38;44.35;;;6.20;;
73550;SDS011;61816;53.582;10.096;2023-02-01T04:44:04;42.97;;;6.07;;
73550;SDS011;61816;53.582;10.096;2023-02-01T04:46:29;39.13;;;8.07;;
73550;SDS011;61816;53.582;10.096;2023-02-01T04:48:55;44.20;;;6.53;;
73550;SDS011;61816;53.582;10.096;2023-02-01T04:51:20;47.42;;;4.90;;
73550;SDS011;61816;53.582;10.096;2023-02-01T04:53:46;35.30;;;5.90;;
73550;SDS011;61816;53.582;10.096;2023-02-01T04:56:11;39.13;;;4.78;;
73550;SDS011;61816;53.582;10.096;2023-02-01T04:58:36;36.92;;;5.65;;
73550;SDS011;61816;53.582;10.096;2023-02-01T05:01:02;42.58;;;5.47;;
73550;SDS011;61816;53.582;10.096;2023-02-01T05:03:30;20.20;;;3.85;;
73550;SDS011;61816;53.582;10.096;2023-02-01T05:05:56;24.17;;;4.10;;
73550;SDS011;61816;53.582;10.096;2023-02-01T05:08:21;26.35;;;4.93;;
73550;SDS011;61816;53.582;10.096;2023-02-01T05:10:47;27.55;;;4.57;;
73550;SDS011;61816;53.582;10.096;2023-02-01T05:13:13;24.77;;;3.95;;
73550;SDS011;61816;53.582;10.096;2023-02-01T05:15:57;15.55;;;2.88;;
73550;SDS011;61816;53.582;10.096;2023-02-01T05:18:22;14.57;;;2.75;;
73550;SDS011;61816;53.582;10.096;2023-02-01T05:20:48;12.02;;;2.20;;
73550;SDS011;61816;53.582;10.096;2023-02-01T05:23:13;8.90;;;2.28;;
73550;SDS011;61816;53.582;10.096;2023-02-01T05:25:38;18.52;;;2.85;;
73550;SDS011;61816;53.582;10.096;2023-02-01T05:28:04;4.82;;;1.58;;
73550;SDS011;61816;53.582;10.096;2023-02-01T05:30:29;11.50;;;1.95;;
73550;SDS011;61816;53.582;10.096;2023-02-01T05:32:55;6.68;;;1.73;;
73550;SDS011;61816;53.582;10.096;2023-02-01T05:35:20;8.73;;;1.88;;
73550;SDS011;61816;53.582;10.096;2023-02-01T05:37:45;8.60;;;1.73;;
73550;SDS011;61816;53.582;10.096;2023-02-01T05:40:11;9.82;;;2.33;;
73550;SDS011;61816;53.582;10.096;2023-02-01T05:42:37;8.13;;;1.45;;
73550;SDS011;61816;53.582;10.096;2023-02-01T05:45:02;12.32;;;2.00;;
73550;SDS011;61816;53.582;10.096;2023-02-01T05:47:30;6.07;;;2.22;;
73550;SDS011;61816;53.582;10.096;2023-02-01T05:49:56;7.15;;;2.03;;
73550;SDS011;61816;53.582;10.096;2023-02-01T05:52:21;12.07;;;1.50;;
73550;SDS011;61816;53.582;10.096;2023-02-01T05:54:47;7.75;;;1.60;;
73550;SDS011;61816;53.582;10.096;2023-02-01T05:57:12;7.65;;;2.00;;
73550;SDS011;61816;53.582;10.096;2023-02-01T05:59:38;10.20;;;1.87;;
73550;SDS011;61816;53.582;10.096;2023-02-01T06:02:09;13.50;;;1.73;;
73550;SDS011;61816;53.582;10.096;2023-02-01T06:04:35;5.68;;;1.23;;
73550;SDS011;61816;53.582;10.096;2023-02-01T06:07:01;10.38;;;2.08;;
73550;SDS011;61816;53.582;10.096;2023-02-01T06:09:26;5.70;;;1.50;;
73550;SDS011;61816;53.582;10.096;2023-02-01T06:11:53;7.35;;;1.52;;
73550;SDS011;61816;53.582;10.096;2023-02-01T06:14:18;5.13;;;1.20;;
73550;SDS011;61816;53.582;10.096;2023-02-01T06:16:44;5.80;;;1.40;;
73550;SDS011;61816;53.582;10.096;2023-02-01T06:19:11;10.50;;;1.23;;
73550;SDS011;61816;53.582;10.096;2023-02-01T06:21:37;8.32;;;1.52;;
73550;SDS011;61816;53.582;10.096;2023-02-01T06:24:02;12.45;;;1.95;;
73550;SDS011;61816;53.582;10.096;2023-02-01T06:26:28;12.05;;;1.83;;
73550;SDS011;61816;53.582;10.096;2023-02-01T06:28:54;10.43;;;1.90;;
73550;SDS011;61816;53.582;10.096;2023-02-01T06:31:20;9.27;;;1.88;;
73550;SDS011;61816;53.582;10.096;2023-02-01T06:33:46;11.65;;;2.20;;
73550;SDS011;61816;53.582;10.096;2023-02-01T06:36:12;15.90;;;1.90;;
73550;SDS011;61816;53.582;10.096;2023-02-01T06:38:38;18.98;;;2.80;;
73550;SDS011;61816;53.582;10.096;2023-02-01T06:41:04;20.92;;;2.17;;
73550;SDS011;61816;53.582;10.096;2023-02-01T06:43:33;18.92;;;3.10;;
73550;SDS011;61816;53.582;10.096;2023-02-01T06:46:03;21.50;;;3.50;;
73550;SDS011;61816;53.582;10.096;2023-02-01T06:48:31;20.40;;;4.15;;
73550;SDS011;61816;53.582;10.096;2023-02-01T06:50:57;20.05;;;3.47;;
73550;SDS011;61816;53.582;10.096;2023-02-01T06:53:22;21.63;;;3.72;;
73550;SDS011;61816;53.582;10.096;2023-02-01T06:55:58;29.50;;;3.30;;
73550;SDS011;61816;53.582;10.096;2023-02-01T06:58:32;19.10;;;4.43;;
73550;SDS011;61816;53.582;10.096;2023-02-01T07:01:03;27.52;;;4.70;;
73550;SDS011;61816;53.582;10.096;2023-02-01T07:03:31;32.00;;;5.28;;
73550;SDS011;61816;53.582;10.096;2023-02-01T07:05:56;36.53;;;4.30;;
73550;SDS011;61816;53.582;10.096;2023-02-01T07:08:28;37.45;;;5.07;;
73550;SDS011;61816;53.582;10.096;2023-02-01T07:10:55;36.53;;;4.78;;
73550;SDS011;61816;53.582;10.096;2023-02-01T07:13:20;45.25;;;5.63;;
73550;SDS011;61816;53.582;10.096;2023-02-01T07:15:45;41.28;;;5.97;;
73550;SDS011;61816;53.582;10.096;2023-02-01T07:18:14;43.75;;;6.13;;
73550;SDS011;61816;53.582;10.096;2023-02-01T07:20:40;56.67;;;5.78;;
73550;SDS011;61816;53.582;10.096;2023-02-01T07:23:06;33.05;;;5.90;;
73550;SDS011;61816;53.582;10.096;2023-02-01T07:25:35;55.70;;;6.40;;
73550;SDS011;61816;53.582;10.096;2023-02-01T07:28:01;54.25;;;8.52;;
73550;SDS011;61816;53.582;10.096;2023-02-01T07:30:27;57.03;;;8.60;;
73550;SDS011;61816;53.582;10.096;2023-02-01T07:32:52;51.38;;;5.97;;
73550;SDS011;61816;53.582;10.096;2023-02-01T07:35:18;63.83;;;9.20;;
73550;SDS011;61816;53.582;10.096;2023-02-01T07:37:43;60.65;;;6.93;;
73550;SDS011;61816;53.582;10.096;2023-02-01T07:40:09;56.05;;;8.02;;
73550;SDS011;61816;53.582;10.096;2023-02-01T07:42:35;63.65;;;8.80;;
73550;SDS011;61816;53.582;10.096;2023-02-01T07:45:00;48.58;;;6.50;;
73550;SDS011;61816;53.582;10.096;2023-02-01T07:47:27;48.28;;;7.55;;
73550;SDS011;61816;53.582;10.096;2023-02-01T07:49:52;56.47;;;6.60;;
73550;SDS011;61816;53.582;10.096;2023-02-01T07:52:18;37.00;;;6.65;;
73550;SDS011;61816;53.582;10.096;2023-02-01T07:54:43;55.03;;;6.43;;
73550;SDS011;61816;53.582;10.096;2023-02-01T07:57:08;46.78;;;5.85;;
73550;SDS011;61816;53.582;10.096;2023-02-01T07:59:36;41.78;;;5.93;;
73550;SDS011;61816;53.582;10.096;2023-02-01T08:02:21;44.40;;;6.38;;
73550;SDS011;61816;53.582;10.096;2023-02-01T08:04:47;65.28;;;7.55;;
73550;SDS011;61816;53.582;10.096;2023-02-01T08:07:12;57.28;;;8.18;;
73550;SDS011;61816;53.582;10.096;2023-02-01T08:09:38;54.83;;;8.73;;
73550;SDS011;61816;53.582;10.096;2023-02-01T08:12:03;81.63;;;10.07;;
73550;SDS011;61816;53.582;10.096;2023-02-01T08:14:28;65.97;;;10.82;;
73550;SDS011;61816;53.582;10.096;2023-02-01T08:16:54;79.72;;;10.52;;
73550;SDS011;61816;53.582;10.096;2023-02-01T08:19:19;81.70;;;10.55;;
73550;SDS011;61816;53.582;10.096;2023-02-01T08:21:44;66.00;;;8.52;;
73550;SDS011;61816;53.582;10.096;2023-02-01T08:24:11;60.97;;;10.07;;
73550;SDS011;61816;53.582;10.096;2023-02-01T08:26:37;80.95;;;9.95;;
73550;SDS011;61816;53.582;10.096;2023-02-01T08:29:03;71.55;;;10.50;;
73550;SDS011;61816;53.582;10.096;2023-02-01T08:31:30;72.55;;;11.43;;
73550;SDS011;61816;53.582;10.096;2023-02-01T08:33:57;72.90;;;9.50;;
73550;SDS011;61816;53.582;10.096;2023-02-01T08:36:24;88.35;;;10.25;;
73550;SDS011;61816;53.582;10.096;2023-02-01T08:38:51;60.45;;;8.23;;
73550;SDS011;61816;53.582;10.096;2023-02-01T08:41:18;73.93;;;9.93;;
73550;SDS011;61816;53.582;10.096;2023-02-01T08:43:45;51.70;;;8.43;;
73550;SDS011;61816;53.582;10.096;2023-02-01T08:46:13;37.45;;;6.05;;
73550;SDS011;61816;53.582;10.096;2023-02-01T08:48:38;46.45;;;6.10;;
73550;SDS011;61816;53.582;10.096;2023-02-01T08:51:04;44.75;;;7.38;;
73550;SDS011;61816;53.582;10.096;2023-02-01T08:53:31;30.27;;;4.93;;
73550;SDS011;61816;53.582;10.096;2023-02-01T08:55:57;38.95;;;5.90;;
73550;SDS011;61816;53.582;10.096;2023-02-01T08:58:23;38.13;;;5.60;;
73550;SDS011;61816;53.582;10.096;2023-02-01T09:00:48;36.35;;;5.88;;
73550;SDS011;61816;53.582;10.096;2023-02-01T09:03:14;45.15;;;7.15;;
73550;SDS011;61816;53.582;10.096;2023-02-01T09:05:40;49.17;;;7.45;;
73550;SDS011;61816;53.582;10.096;2023-02-01T09:08:06;54.63;;;8.00;;
73550;SDS011;61816;53.582;10.096;2023-02-01T09:10:32;53.70;;;8.43;;
73550;SDS011;61816;53.582;10.096;2023-02-01T09:12:57;60.50;;;8.18;;
73550;SDS011;61816;53.582;10.096;2023-02-01T09:15:23;57.67;;;7.72;;
73550;SDS011;61816;53.582;10.096;2023-02-01T09:17:49;62.33;;;8.43;;
73550;SDS011;61816;53.582;10.096;2023-02-01T09:20:14;61.33;;;8.80;;
73550;SDS011;61816;53.582;10.096;2023-02-01T09:22:40;51.53;;;8.43;;
73550;SDS011;61816;53.582;10.096;2023-02-01T09:25:06;60.60;;;8.98;;
73550;SDS011;61816;53.582;10.096;2023-02-01T09:27:32;63.30;;;8.70;;
73550;SDS011;61816;53.582;10.096;2023-02-01T09:29:58;61.10;;;8.93;;
73550;SDS011;61816;53.582;10.096;2023-02-01T09:32:24;65.32;;;10.98;;
73550;SDS011;61816;53.582;10.096;2023-02-01T09:34:50;66.15;;;8.75;;
73550;SDS011;61816;53.582;10.096;2023-02-01T09:37:17;70.68;;;11.48;;
73550;SDS011;61816;53.582;10.096;2023-02-01T09:39:43;63.38;;;11.45;;
73550;SDS011;61816;53.582;10.096;2023-02-01T09:42:25;64.13;;;8.18;;
73550;SDS011;61816;53.582;10.096;2023-02-01T09:47:28;55.40;;;6.55;;
73550;SDS011;61816;53.582;10.096;2023-02-01T09:52:40;61.78;;;8.45;;
73550;SDS011;61816;53.582;10.096;2023-02-01T09:55:15;66.13;;;8.05;;
73550;SDS011;61816;53.582;10.096;2023-02-01T09:57:46;55.47;;;8.35;;
73550;SDS011;61816;53.582;10.096;2023-02-01T10:00:19;56.40;;;8.75;;
73550;SDS011;61816;53.582;10.096;2023-02-01T10:02:50;69.38;;;8.45;;
73550;SDS011;61816;53.582;10.096;2023-02-01T10:05:19;57.65;;;9.57;;
73550;SDS011;61816;53.582;10.096;2023-02-01T10:10:40;70.80;;;10.93;;
73550;SDS011;61816;53.582;10.096;2023-02-01T10:13:32;44.38;;;6.40;;
73550;SDS011;61816;53.582;10.096;2023-02-01T10:19:24;53.85;;;7.43;;
73550;SDS011;61816;53.582;10.096;2023-02-01T10:27:53;50.15;;;7.25;;
73550;SDS011;61816;53.582;10.096;2023-02-01T10:30:22;55.38;;;6.90;;
73550;SDS011;61816;53.582;10.096;2023-02-01T10:32:49;54.55;;;9.73;;
73550;SDS011;61816;53.582;10.096;2023-02-01T10:35:54;44.25;;;8.15;;
73550;SDS011;61816;53.582;10.096;2023-02-01T10:38:25;58.88;;;8.02;;
73550;SDS011;61816;53.582;10.096;2023-02-01T10:40:53;56.15;;;7.82;;
73550;SDS011;61816;53.582;10.096;2023-02-01T10:43:24;45.63;;;6.88;;
73550;SDS011;61816;53.582;10.096;2023-02-01T10:45:50;39.05;;;8.70;;
73550;SDS011;61816;53.582;10.096;2023-02-01T10:48:16;57.97;;;7.00;;
73550;SDS011;61816;53.582;10.096;2023-02-01T10:53:18;51.83;;;8.13;;
73550;SDS011;61816;53.582;10.096;2023-02-01T10:55:47;60.13;;;7.85;;
73550;SDS011;61816;53.582;10.096;2023-02-01T10:58:19;56.53;;;7.72;;
73550;SDS011;61816;53.582;10.096;2023-02-01T11:00:47;52.83;;;7.55;;
73550;SDS011;61816;53.582;10.096;2023-02-01T11:03:51;60.58;;;8.02;;
73550;SDS011;61816;53.582;10.096;2023-02-01T11:06:38;68.53;;;8.05;;
73550;SDS011;61816;53.582;10.096;2023-02-01T11:11:30;63.67;;;8.00;;
73550;SDS011;61816;53.582;10.096;2023-02-01T11:13:57;58.30;;;7.55;;
73550;SDS011;61816;53.582;10.096;2023-02-01T11:16:29;64.95;;;8.38;;
73550;SDS011;61816;53.582;10.096;2023-02-01T11:19:00;85.55;;;12.35;;
73550;SDS011;61816;53.582;10.096;2023-02-01T11:21:25;59.75;;;7.72;;
73550;SDS011;61816;53.582;10.096;2023-02-01T11:23:51;58.13;;;6.90;;
73550;SDS011;61816;53.582;10.096;2023-02-01T11:29:04;63.13;;;9.05;;
73550;SDS011;61816;53.582;10.096;2023-02-01T11:31:35;57.13;;;9.55;;
73550;SDS011;61816;53.582;10.096;2023-02-01T11:34:05;44.28;;;7.53;;
73550;SDS011;61816;53.582;10.096;2023-02-01T11:36:36;52.55;;;7.85;;
73550;SDS011;61816;53.582;10.096;2023-02-01T11:44:34;60.45;;;9.18;;
73550;SDS011;61816;53.582;10.096;2023-02-01T11:49:57;55.92;;;7.88;;
73550;SDS011;61816;53.582;10.096;2023-02-01T11:58:21;55.35;;;9.23;;
73550;SDS011;61816;53.582;10.096;2023-02-01T12:11:30;31.67;;;5.10;;
73550;SDS011;61816;53.582;10.096;2023-02-01T12:28:07;42.40;;;5.90;;
73550;SDS011;61816;53.582;10.096;2023-02-01T12:35:58;35.10;;;5.25;;
73550;SDS011;61816;53.582;10.096;2023-02-01T12:44:41;21.15;;;5.10;;
73550;SDS011;61816;53.582;10.096;2023-02-01T12:52:42;8.63;;;1.80;;
73550;SDS011;61816;53.582;10.096;2023-02-01T12:55:25;15.27;;;2.30;;
73550;SDS011;61816;53.582;10.096;2023-02-01T12:58:35;10.35;;;1.98;;
73550;SDS011;61816;53.582;10.096;2023-02-01T13:01:20;8.90;;;1.73;;
73550;SDS011;61816;53.582;10.096;2023-02-01T13:06:25;6.40;;;1.70;;
73550;SDS011;61816;53.582;10.096;2023-02-01T13:09:03;7.10;;;1.38;;
73550;SDS011;61816;53.582;10.096;2023-02-01T13:11:38;9.48;;;1.42;;
73550;SDS011;61816;53.582;10.096;2023-02-01T13:14:19;5.00;;;1.67;;
73550;SDS011;61816;53.582;10.096;2023-02-01T13:16:53;5.53;;;1.88;;
73550;SDS011;61816;53.582;10.096;2023-02-01T13:19:27;8.38;;;1.73;;
73550;SDS011;61816;53.582;10.096;2023-02-01T13:22:23;6.60;;;1.95;;
73550;SDS011;61816;53.582;10.096;2023-02-01T13:24:57;8.30;;;1.43;;
73550;SDS011;61816;53.582;10.096;2023-02-01T13:27:26;7.03;;;1.90;;
73550;SDS011;61816;53.582;10.096;2023-02-01T13:35:20;5.68;;;1.23;;
73550;SDS011;61816;53.582;10.096;2023-02-01T13:43:11;6.38;;;1.88;;
73550;SDS011;61816;53.582;10.096;2023-02-01T13:45:48;6.60;;;1.88;;
73550;SDS011;61816;53.582;10.096;2023-02-01T13:48:29;10.88;;;1.65;;
73550;SDS011;61816;53.582;10.096;2023-02-01T13:51:01;11.10;;;1.98;;
73550;SDS011;61816;53.582;10.096;2023-02-01T13:53:28;8.50;;;1.65;;
73550;SDS011;61816;53.582;10.096;2023-02-01T13:55:57;9.68;;;1.65;;
73550;SDS011;61816;53.582;10.096;2023-02-01T13:58:36;6.05;;;1.38;;
73550;SDS011;61816;53.582;10.096;2023-02-01T14:11:45;17.27;;;2.20;;
73550;SDS011;61816;53.582;10.096;2023-02-01T14:16:44;8.50;;;1.45;;
73550;SDS011;61816;53.582;10.096;2023-02-01T14:19:33;19.98;;;2.33;;
73550;SDS011;61816;53.582;10.096;2023-02-01T14:22:00;10.68;;;1.60;;
73550;SDS011;61816;53.582;10.096;2023-02-01T14:24:52;9.45;;;1.52;;
73550;SDS011;61816;53.582;10.096;2023-02-01T14:27:21;16.67;;;2.75;;
73550;SDS011;61816;53.582;10.096;2023-02-01T14:30:00;11.13;;;1.40;;
73550;SDS011;61816;53.582;10.096;2023-02-01T14:32:30;12.23;;;2.13;;
73550;SDS011;61816;53.582;10.096;2023-02-01T14:34:59;19.30;;;2.00;;
73550;SDS011;61816;53.582;10.096;2023-02-01T14:37:28;19.38;;;2.50;;
73550;SDS011;61816;53.582;10.096;2023-02-01T14:40:04;21.77;;;2.67;;
73550;SDS011;61816;53.582;10.096;2023-02-01T14:55:45;30.17;;;2.70;;
73550;SDS011;61816;53.582;10.096;2023-02-01T15:00:56;22.10;;;3.38;;
73550;SDS011;61816;53.582;10.096;2023-02-01T15:06:20;18.88;;;3.00;;
73550;SDS011;61816;53.582;10.096;2023-02-01T15:08:52;24.45;;;3.70;;
73550;SDS011;61816;53.582;10.096;2023-02-01T15:11:23;21.33;;;3.20;;
73550;SDS011;61816;53.582;10.096;2023-02-01T15:13:49;26.75;;;4.43;;
73550;SDS011;61816;53.582;10.096;2023-02-01T15:16:18;26.25;;;3.70;;
73550;SDS011;61816;53.582;10.096;2023-02-01T15:18:45;37.45;;;4.35;;
73550;SDS011;61816;53.582;10.096;2023-02-01T15:21:15;36.97;;;5.03;;
73550;SDS011;61816;53.582;10.096;2023-02-01T15:23:45;32.67;;;4.40;;
73550;SDS011;61816;53.582;10.096;2023-02-01T15:26:30;52.63;;;6.25;;
73550;SDS011;61816;53.582;10.096;2023-02-01T15:28:57;31.17;;;4.28;;
73550;SDS011;61816;53.582;10.096;2023-02-01T15:31:36;43.92;;;6.10;;
73550;SDS011;61816;53.582;10.096;2023-02-01T15:34:03;48.75;;;5.95;;
73550;SDS011;61816;53.582;10.096;2023-02-01T15:36:29;34.22;;;4.32;;
73550;SDS011;61816;53.582;10.096;2023-02-01T15:39:13;56.35;;;6.70;;
73550;SDS011;61816;53.582;10.096;2023-02-01T15:42:10;42.53;;;7.15;;
73550;SDS011;61816;53.582;10.096;2023-02-01T15:44:41;35.90;;;5.35;;
73550;SDS011;61816;53.582;10.096;2023-02-01T15:47:24;32.35;;;4.93;;
73550;SDS011;61816;53.582;10.096;2023-02-01T15:49:52;63.75;;;5.43;;
73550;SDS011;61816;53.582;10.096;2023-02-01T15:52:21;33.50;;;6.53;;
73550;SDS011;61816;53.582;10.096;2023-02-01T15:55:16;52.67;;;5.90;;
73550;SDS011;61816;53.582;10.096;2023-02-01T15:57:45;62.42;;;5.55;;
73550;SDS011;61816;53.582;10.096;2023-02-01T16:01:12;36.97;;;6.18;;
73550;SDS011;61816;53.582;10.096;2023-02-01T16:03:24;49.53;;;6.35;;
73550;SDS011;61816;53.582;10.096;2023-02-01T16:05:57;48.03;;;7.50;;
73550;SDS011;61816;53.582;10.096;2023-02-01T16:08:25;34.40;;;5.57;;
73550;SDS011;61816;53.582;10.096;2023-02-01T16:11:14;44.90;;;6.27;;
73550;SDS011;61816;53.582;10.096;2023-02-01T16:14:00;39.10;;;6.85;;
73550;SDS011;61816;53.582;10.096;2023-02-01T16:16:27;52.47;;;6.40;;
73550;SDS011;61816;53.582;10.096;2023-02-01T16:18:57;42.42;;;6.05;;
73550;SDS011;61816;53.582;10.096;2023-02-01T16:21:22;41.40;;;5.32;;
73550;SDS011;61816;53.582;10.096;2023-02-01T16:23:48;44.13;;;5.85;;
73550;SDS011;61816;53.582;10.096;2023-02-01T16:26:17;53.75;;;7.45;;
73550;SDS011;61816;53.582;10.096;2023-02-01T16:28:43;48.13;;;6.35;;
73550;SDS011;61816;53.582;10.096;2023-02-01T16:31:11;48.88;;;5.78;;
73550;SDS011;61816;53.582;10.096;2023-02-01T16:33:44;58.25;;;7.07;;
73550;SDS011;61816;53.582;10.096;2023-02-01T16:36:11;46.75;;;6.15;;
73550;SDS011;61816;53.582;10.096;2023-02-01T16:38:38;43.83;;;6.63;;
73550;SDS011;61816;53.582;10.096;2023-02-01T16:41:04;57.33;;;7.22;;
73550;SDS011;61816;53.582;10.096;2023-02-01T16:43:30;47.60;;;7.68;;
73550;SDS011;61816;53.582;10.096;2023-02-01T16:45:59;48.45;;;7.45;;
73550;SDS011;61816;53.582;10.096;2023-02-01T16:48:29;57.75;;;8.98;;
73550;SDS011;61816;53.582;10.096;2023-02-01T16:50:59;60.85;;;7.30;;
73550;SDS011;61816;53.582;10.096;2023-02-01T16:53:27;61.47;;;7.22;;
73550;SDS011;61816;53.582;10.096;2023-02-01T16:55:54;55.20;;;8.02;;
73550;SDS011;61816;53.582;10.096;2023-02-01T16:58:25;53.15;;;7.25;;
73550;SDS011;61816;53.582;10.096;2023-02-01T17:00:51;56.90;;;7.90;;
73550;SDS011;61816;53.582;10.096;2023-02-01T17:03:18;80.88;;;8.05;;
73550;SDS011;61816;53.582;10.096;2023-02-01T17:05:49;69.07;;;7.88;;
73550;SDS011;61816;53.582;10.096;2023-02-01T17:08:39;73.78;;;8.63;;
73550;SDS011;61816;53.582;10.096;2023-02-01T17:11:12;67.80;;;8.68;;